»·PEaware :: N48340 KPOC-KLGB

N48340 :: KPOC-KLGB

FLIGHT INFORMATION

Flight Status: Arrived
Operator: Privately registered:
United States
More flights under this callsign
Pilot: Hector T. (16443)
Aircraft: CESSNA 172 SKYHAWK
(C172)
More flights by this aircraft type
Origin: KPOC Brackett
United States
Destination: KLGB Long Beach
United States
More flights between these airports :: More routes between these airports
Route: PRADO PDZ PDZ270 V394 SLI
File this flight plan on PilotEdge
Remarks:
Altitude:
(Current/Filed)
4,000ft
Speed:
(Current/Filed)
120kts
Departed: 15-May-18 08:58 PM
Arrived: 15-May-18 09:23 PM
Distance/Time
Traveled:
25nm/0:24
Distance/Time
To Go:
Arrived

Flight Plot

Page will automatically refresh every two minutes.


Map Options




Map Legend


Flown Route
Filed Route
Departure Airport
Arrival Airport
Navaid (VOR, NDB)
Fix

Horizontal Profiles

Position Reports

Time Latitude Longitude Heading Altitude Ground
Speed
15-May-18 20:33 34.089874 -117.780926 272 1015ft 0kts
15-May-18 20:34 34.089874 -117.780926 272 1015ft 0kts
15-May-18 20:35 34.089874 -117.780926 272 1015ft 0kts
15-May-18 20:36 34.089874 -117.780926 272 1015ft 0kts
15-May-18 20:37 34.089874 -117.780926 272 1015ft 0kts
15-May-18 20:38 34.089874 -117.780926 272 1015ft 0kts
15-May-18 20:39 34.089874 -117.780926 272 1015ft 0kts
15-May-18 20:40 34.089874 -117.780926 272 1015ft 0kts
15-May-18 20:41 34.089874 -117.780926 272 1015ft 0kts
15-May-18 20:42 34.089874 -117.780926 272 1015ft 0kts
15-May-18 20:43 34.089874 -117.780926 272 1015ft 0kts
15-May-18 20:44 34.089874 -117.780926 272 1015ft 0kts
15-May-18 20:45 34.089874 -117.780926 272 1015ft 0kts
15-May-18 20:46 34.089874 -117.780926 272 1015ft 0kts
15-May-18 20:47 34.089874 -117.780926 272 1015ft 0kts
15-May-18 20:48 34.089874 -117.780926 272 1015ft 0kts
15-May-18 20:49 34.089874 -117.780926 272 1015ft 0kts
15-May-18 20:50 34.089874 -117.780926 272 1015ft 0kts
15-May-18 20:51 34.089874 -117.780926 272 1015ft 0kts
15-May-18 20:52 34.089976 -117.781034 347 1015ft 2kts
15-May-18 20:53 34.090475 -117.778583 92 1015ft 18kts
15-May-18 20:54 34.090546 -117.774620 14 1015ft 0kts
15-May-18 20:55 34.090546 -117.774620 14 1015ft 0kts
15-May-18 20:56 34.090546 -117.774620 14 1015ft 0kts
15-May-18 20:57 34.090548 -117.774620 13 1015ft 0kts
15-May-18 20:58 34.091425 -117.783854 274 1194ft 77kts
15-May-18 20:59 34.088829 -117.794163 201 1806ft 64kts
15-May-18 21:00 34.074496 -117.785131 148 2513ft 85kts
15-May-18 21:01 34.074496 -117.785131 148 2513ft 85kts
15-May-18 21:02 34.060558 -117.785348 191 3136ft 86kts
15-May-18 21:03 34.036576 -117.785069 170 3994ft 99kts
15-May-18 21:04 34.004749 -117.785416 173 4010ft 126kts
15-May-18 21:05 33.971697 -117.788154 212 3939ft 120kts
15-May-18 21:06 33.954830 -117.818338 229 4018ft 119kts
15-May-18 21:07 33.933143 -117.848103 233 4035ft 120kts
15-May-18 21:08 33.910903 -117.877240 231 4026ft 118kts
15-May-18 21:09 33.889972 -117.908211 228 3971ft 120kts
15-May-18 21:10 33.862480 -117.925732 182 3719ft 114kts
15-May-18 21:11 33.833144 -117.927787 182 3043ft 114kts
15-May-18 21:12 33.805265 -117.929555 181 2980ft 108kts
15-May-18 21:13 33.785742 -117.930969 182 3005ft 109kts
15-May-18 21:14 33.758614 -117.945432 213 2625ft 109kts
15-May-18 21:15 33.733927 -117.964913 214 1940ft 105kts
15-May-18 21:16 33.720411 -117.980899 260 1635ft 105kts
15-May-18 21:17 33.725988 -118.013422 284 1660ft 94kts
15-May-18 21:18 33.732566 -118.042854 296 1657ft 91kts
15-May-18 21:19 33.747586 -118.066404 316 1619ft 91kts
15-May-18 21:20 33.765323 -118.088071 314 1357ft 94kts
15-May-18 21:21 33.782825 -118.109700 315 825ft 91kts
15-May-18 21:22 33.800869 -118.130920 315 472ft 96kts
15-May-18 21:23 33.813311 -118.145946 315 64ft 32kts
15-May-18 21:24 33.814941 -118.149264 268 64ft 0kts
15-May-18 21:25 33.813648 -118.151095 219 64ft 17kts
15-May-18 21:26 33.812582 -118.153687 261 64ft 0kts
15-May-18 21:27 33.812582 -118.153687 261 64ft 0kts
15-May-18 21:28 33.812582 -118.153687 261 64ft 0kts
15-May-18 21:29 33.812582 -118.153687 261 64ft 0kts
15-May-18 21:30 33.812582 -118.153687 261 64ft 0kts
15-May-18 21:31 33.812582 -118.153687 261 64ft 0kts

Navigation Log

Ident Type
1. KPOC Airport
2. PRADO Fix
3. PDZ Navaid
4. SLI Navaid
5. KLGB Airport